JES3073 SABE-SAME
Flight info
| Callsign | JES3073 |
|---|---|
| Flight time | N/A |
| Altitude | 36000 |
| Route | PAL9 NEPIS DCT NIN UL405 PAPIR PAPIR2U |
| Aircraft | A321/M-SDE3FGHIRWY/LB1 |
Departure
| Time | 2026-05-05 17:00 |
|---|---|
| Airport | Aeroparque Jorge Newbery (SABE) |
Arrival
| Time | N/A |
|---|---|
| Airport | Governor Francisco Gabrielli International Airport (SAME) |
| Time | Latitude | Longitude | Altitude | Speed | Heading |
|---|---|---|---|---|---|
| 2026-05-05 16:49 | -34.55778 | -58.41281 | 25 ft | 0 kts | 35° |
| 2026-05-05 16:53 | -34.55791 | -58.41292 | 27 ft | 2 kts | 28° |
| 2026-05-05 16:54 | -34.55806 | -58.41300 | 26 ft | 2 kts | 13° |
| 2026-05-05 16:54 | -34.55823 | -58.41302 | 28 ft | 2 kts | 336° |
| 2026-05-05 16:54 | -34.55836 | -58.41291 | 28 ft | 2 kts | 307° |
| 2026-05-05 16:54 | -34.55842 | -58.41281 | 27 ft | 1 kts | 302° |
| 2026-05-05 16:55 | -34.55843 | -58.41280 | 27 ft | 0 kts | 302° |
| 2026-05-05 16:55 | -34.55843 | -58.41281 | 27 ft | 1 kts | 302° |
| 2026-05-05 16:56 | -34.55819 | -58.41325 | 28 ft | 10 kts | 303° |
| 2026-05-05 16:56 | -34.55787 | -58.41386 | 24 ft | 8 kts | 302° |
| 2026-05-05 16:56 | -34.55760 | -58.41438 | 24 ft | 7 kts | 301° |
| 2026-05-05 16:56 | -34.55739 | -58.41483 | 24 ft | 6 kts | 295° |
| 2026-05-05 16:57 | -34.55728 | -58.41524 | 24 ft | 5 kts | 283° |
| 2026-05-05 16:57 | -34.55729 | -58.41557 | 24 ft | 3 kts | 256° |
| 2026-05-05 16:57 | -34.55741 | -58.41581 | 25 ft | 5 kts | 233° |
| 2026-05-05 16:57 | -34.55770 | -58.41619 | 24 ft | 6 kts | 243° |
| 2026-05-05 16:58 | -34.55770 | -58.41666 | 23 ft | 5 kts | 283° |
| 2026-05-05 16:58 | -34.55756 | -58.41705 | 25 ft | 5 kts | 296° |
| 2026-05-05 16:58 | -34.55732 | -58.41758 | 25 ft | 11 kts | 300° |
| 2026-05-05 16:58 | -34.55673 | -58.41867 | 26 ft | 20 kts | 306° |
| 2026-05-05 16:59 | -34.55578 | -58.42028 | 24 ft | 27 kts | 305° |
| 2026-05-05 16:59 | -34.55462 | -58.42219 | 25 ft | 26 kts | 307° |
| 2026-05-05 16:59 | -34.55374 | -58.42366 | 24 ft | 18 kts | 297° |
| 2026-05-05 16:59 | -34.55393 | -58.42477 | 23 ft | 11 kts | 185° |
| 2026-05-05 17:00 | -34.55496 | -58.42339 | 26 ft | 52 kts | 124° |
| 2026-05-05 17:00 | -34.55841 | -58.41719 | 22 ft | 122 kts | 124° |
| 2026-05-05 17:00 | -34.56425 | -58.40680 | 37 ft | 172 kts | 123° |
| 2026-05-05 17:00 | -34.57086 | -58.39466 | 746 ft | 171 kts | 120° |
| 2026-05-05 17:01 | -34.57620 | -58.38184 | 1495 ft | 172 kts | 98° |
| 2026-05-05 17:01 | -34.57523 | -58.36762 | 2142 ft | 172 kts | 65° |
| 2026-05-05 17:01 | -34.56820 | -58.35587 | 2493 ft | 176 kts | 28° |
| 2026-05-05 17:01 | -34.55683 | -58.35044 | 2845 ft | 181 kts | 7° |
| 2026-05-05 17:02 | -34.54437 | -58.35266 | 3065 ft | 191 kts | 324° |
| 2026-05-05 17:02 | -34.53673 | -58.36603 | 3346 ft | 204 kts | 288° |
| 2026-05-05 17:02 | -34.53470 | -58.38373 | 3588 ft | 223 kts | 277° |
| 2026-05-05 17:02 | -34.53317 | -58.40362 | 3865 ft | 248 kts | 277° |
| 2026-05-05 17:03 | -34.53173 | -58.42465 | 4603 ft | 252 kts | 276° |
| 2026-05-05 17:03 | -34.53037 | -58.44601 | 5375 ft | 255 kts | 276° |
| 2026-05-05 17:03 | -34.52950 | -58.46053 | 5894 ft | 257 kts | 276° |
| 2026-05-05 17:03 | -34.52790 | -58.48920 | 6906 ft | 258 kts | 276° |
| 2026-05-05 17:04 | -34.52751 | -58.49652 | 7150 ft | 258 kts | 275° |